sensor_id;sensor_type;location;lat;lon;timestamp;P1;durP1;ratioP1;P2;durP2;ratioP2
22851;SDS011;11592;45.460;9.240;2023-04-03T00:00:50;11.70;;;7.15;;
22851;SDS011;11592;45.460;9.240;2023-04-03T00:03:17;10.48;;;6.80;;
22851;SDS011;11592;45.460;9.240;2023-04-03T00:05:45;12.48;;;6.80;;
22851;SDS011;11592;45.460;9.240;2023-04-03T00:08:12;14.95;;;7.25;;
22851;SDS011;11592;45.460;9.240;2023-04-03T00:10:39;11.50;;;7.28;;
22851;SDS011;11592;45.460;9.240;2023-04-03T00:13:06;14.02;;;7.25;;
22851;SDS011;11592;45.460;9.240;2023-04-03T00:15:34;13.73;;;7.82;;
22851;SDS011;11592;45.460;9.240;2023-04-03T00:18:02;12.63;;;7.85;;
22851;SDS011;11592;45.460;9.240;2023-04-03T00:20:29;12.82;;;8.25;;
22851;SDS011;11592;45.460;9.240;2023-04-03T00:22:56;13.13;;;7.50;;
22851;SDS011;11592;45.460;9.240;2023-04-03T00:25:23;17.13;;;7.20;;
22851;SDS011;11592;45.460;9.240;2023-04-03T00:27:50;13.90;;;7.53;;
22851;SDS011;11592;45.460;9.240;2023-04-03T00:30:18;14.13;;;7.35;;
22851;SDS011;11592;45.460;9.240;2023-04-03T00:32:47;14.10;;;7.70;;
22851;SDS011;11592;45.460;9.240;2023-04-03T00:35:15;15.20;;;7.82;;
22851;SDS011;11592;45.460;9.240;2023-04-03T00:37:42;13.40;;;8.68;;
22851;SDS011;11592;45.460;9.240;2023-04-03T00:40:09;15.07;;;8.32;;
22851;SDS011;11592;45.460;9.240;2023-04-03T00:42:37;14.30;;;8.48;;
22851;SDS011;11592;45.460;9.240;2023-04-03T00:48:10;13.25;;;7.88;;
22851;SDS011;11592;45.460;9.240;2023-04-03T00:50:40;13.63;;;8.88;;
22851;SDS011;11592;45.460;9.240;2023-04-03T00:53:09;17.52;;;8.32;;
22851;SDS011;11592;45.460;9.240;2023-04-03T00:55:40;15.63;;;8.68;;
22851;SDS011;11592;45.460;9.240;2023-04-03T00:58:08;16.48;;;8.35;;
22851;SDS011;11592;45.460;9.240;2023-04-03T01:00:37;15.43;;;8.55;;
22851;SDS011;11592;45.460;9.240;2023-04-03T01:03:06;16.73;;;8.05;;
22851;SDS011;11592;45.460;9.240;2023-04-03T01:05:33;12.35;;;7.47;;
22851;SDS011;11592;45.460;9.240;2023-04-03T01:08:00;17.20;;;8.60;;
22851;SDS011;11592;45.460;9.240;2023-04-03T01:10:28;16.05;;;8.25;;
22851;SDS011;11592;45.460;9.240;2023-04-03T01:12:54;13.70;;;7.82;;
22851;SDS011;11592;45.460;9.240;2023-04-03T01:15:23;15.98;;;8.85;;
22851;SDS011;11592;45.460;9.240;2023-04-03T01:25:38;12.93;;;7.68;;
22851;SDS011;11592;45.460;9.240;2023-04-03T01:28:06;12.48;;;7.05;;
22851;SDS011;11592;45.460;9.240;2023-04-03T01:30:35;14.88;;;7.10;;
22851;SDS011;11592;45.460;9.240;2023-04-03T01:33:07;13.63;;;7.10;;
22851;SDS011;11592;45.460;9.240;2023-04-03T01:35:34;14.52;;;7.35;;
22851;SDS011;11592;45.460;9.240;2023-04-03T01:38:01;14.30;;;8.15;;
22851;SDS011;11592;45.460;9.240;2023-04-03T01:40:27;12.18;;;7.40;;
22851;SDS011;11592;45.460;9.240;2023-04-03T01:42:54;13.00;;;7.63;;
22851;SDS011;11592;45.460;9.240;2023-04-03T01:45:21;12.18;;;7.07;;
22851;SDS011;11592;45.460;9.240;2023-04-03T01:47:48;12.00;;;7.47;;
22851;SDS011;11592;45.460;9.240;2023-04-03T01:50:14;10.68;;;6.60;;
22851;SDS011;11592;45.460;9.240;2023-04-03T01:52:41;13.93;;;7.38;;
22851;SDS011;11592;45.460;9.240;2023-04-03T01:55:08;11.50;;;7.20;;
22851;SDS011;11592;45.460;9.240;2023-04-03T01:57:35;12.70;;;7.57;;
22851;SDS011;11592;45.460;9.240;2023-04-03T02:00:02;12.00;;;7.00;;
22851;SDS011;11592;45.460;9.240;2023-04-03T02:02:30;15.10;;;7.97;;
22851;SDS011;11592;45.460;9.240;2023-04-03T02:04:56;12.75;;;6.90;;
22851;SDS011;11592;45.460;9.240;2023-04-03T02:07:23;14.00;;;7.43;;
22851;SDS011;11592;45.460;9.240;2023-04-03T02:09:50;13.15;;;6.93;;
22851;SDS011;11592;45.460;9.240;2023-04-03T02:12:17;10.85;;;6.72;;
22851;SDS011;11592;45.460;9.240;2023-04-03T02:14:43;11.35;;;6.65;;
22851;SDS011;11592;45.460;9.240;2023-04-03T02:17:10;9.95;;;6.35;;
22851;SDS011;11592;45.460;9.240;2023-04-03T02:19:37;9.82;;;6.25;;
22851;SDS011;11592;45.460;9.240;2023-04-03T02:22:04;12.05;;;7.38;;
22851;SDS011;11592;45.460;9.240;2023-04-03T02:24:31;11.38;;;7.10;;
22851;SDS011;11592;45.460;9.240;2023-04-03T02:26:58;11.82;;;7.22;;
22851;SDS011;11592;45.460;9.240;2023-04-03T02:29:25;11.75;;;6.65;;
22851;SDS011;11592;45.460;9.240;2023-04-03T02:31:52;14.40;;;7.53;;
22851;SDS011;11592;45.460;9.240;2023-04-03T02:34:19;11.18;;;6.65;;
22851;SDS011;11592;45.460;9.240;2023-04-03T02:36:46;11.15;;;7.53;;
22851;SDS011;11592;45.460;9.240;2023-04-03T02:39:13;12.05;;;6.38;;
22851;SDS011;11592;45.460;9.240;2023-04-03T02:41:39;11.10;;;7.13;;
22851;SDS011;11592;45.460;9.240;2023-04-03T02:44:06;12.90;;;7.00;;
22851;SDS011;11592;45.460;9.240;2023-04-03T02:46:36;17.05;;;7.10;;
22851;SDS011;11592;45.460;9.240;2023-04-03T02:49:03;14.80;;;7.25;;
22851;SDS011;11592;45.460;9.240;2023-04-03T02:51:30;14.15;;;6.82;;
22851;SDS011;11592;45.460;9.240;2023-04-03T02:53:57;10.90;;;7.05;;
22851;SDS011;11592;45.460;9.240;2023-04-03T02:56:23;13.38;;;7.90;;
22851;SDS011;11592;45.460;9.240;2023-04-03T02:58:50;17.10;;;7.82;;
22851;SDS011;11592;45.460;9.240;2023-04-03T03:01:17;13.75;;;7.88;;
22851;SDS011;11592;45.460;9.240;2023-04-03T03:03:44;14.20;;;7.15;;
22851;SDS011;11592;45.460;9.240;2023-04-03T03:06:12;13.98;;;7.82;;
22851;SDS011;11592;45.460;9.240;2023-04-03T03:08:42;11.52;;;7.22;;
22851;SDS011;11592;45.460;9.240;2023-04-03T03:11:09;12.15;;;7.13;;
22851;SDS011;11592;45.460;9.240;2023-04-03T03:13:36;12.35;;;7.38;;
22851;SDS011;11592;45.460;9.240;2023-04-03T03:16:03;12.73;;;7.40;;
22851;SDS011;11592;45.460;9.240;2023-04-03T03:18:31;10.50;;;7.00;;
22851;SDS011;11592;45.460;9.240;2023-04-03T03:20:59;13.15;;;7.70;;
22851;SDS011;11592;45.460;9.240;2023-04-03T03:23:27;12.13;;;7.45;;
22851;SDS011;11592;45.460;9.240;2023-04-03T03:25:55;11.68;;;7.40;;
22851;SDS011;11592;45.460;9.240;2023-04-03T03:28:23;12.70;;;6.97;;
22851;SDS011;11592;45.460;9.240;2023-04-03T03:30:51;12.18;;;6.82;;
22851;SDS011;11592;45.460;9.240;2023-04-03T03:33:18;15.05;;;7.20;;
22851;SDS011;11592;45.460;9.240;2023-04-03T03:35:45;11.10;;;7.13;;
22851;SDS011;11592;45.460;9.240;2023-04-03T03:38:12;16.42;;;7.07;;
22851;SDS011;11592;45.460;9.240;2023-04-03T03:40:39;11.52;;;7.10;;
22851;SDS011;11592;45.460;9.240;2023-04-03T03:43:05;11.88;;;6.90;;
22851;SDS011;11592;45.460;9.240;2023-04-03T03:45:32;12.82;;;7.38;;
22851;SDS011;11592;45.460;9.240;2023-04-03T03:47:59;11.13;;;6.85;;
22851;SDS011;11592;45.460;9.240;2023-04-03T03:50:26;11.95;;;7.18;;
22851;SDS011;11592;45.460;9.240;2023-04-03T03:52:53;14.75;;;6.93;;
22851;SDS011;11592;45.460;9.240;2023-04-03T03:55:20;13.02;;;7.97;;
22851;SDS011;11592;45.460;9.240;2023-04-03T03:57:47;12.38;;;7.90;;
22851;SDS011;11592;45.460;9.240;2023-04-03T04:00:14;12.25;;;6.50;;
22851;SDS011;11592;45.460;9.240;2023-04-03T04:02:41;12.15;;;7.03;;
22851;SDS011;11592;45.460;9.240;2023-04-03T04:05:09;12.70;;;6.88;;
22851;SDS011;11592;45.460;9.240;2023-04-03T04:07:35;13.45;;;7.40;;
22851;SDS011;11592;45.460;9.240;2023-04-03T04:10:02;11.07;;;7.13;;
22851;SDS011;11592;45.460;9.240;2023-04-03T04:12:29;13.48;;;7.03;;
22851;SDS011;11592;45.460;9.240;2023-04-03T04:14:56;13.90;;;6.88;;
22851;SDS011;11592;45.460;9.240;2023-04-03T04:17:23;14.05;;;7.28;;
22851;SDS011;11592;45.460;9.240;2023-04-03T04:19:50;15.77;;;7.75;;
22851;SDS011;11592;45.460;9.240;2023-04-03T04:22:16;15.82;;;7.63;;
22851;SDS011;11592;45.460;9.240;2023-04-03T04:24:43;13.30;;;7.35;;
22851;SDS011;11592;45.460;9.240;2023-04-03T04:27:10;16.10;;;7.65;;
22851;SDS011;11592;45.460;9.240;2023-04-03T04:29:36;14.30;;;7.28;;
22851;SDS011;11592;45.460;9.240;2023-04-03T04:32:03;14.55;;;8.05;;
22851;SDS011;11592;45.460;9.240;2023-04-03T04:34:30;16.25;;;7.32;;
22851;SDS011;11592;45.460;9.240;2023-04-03T04:36:57;18.45;;;7.13;;
22851;SDS011;11592;45.460;9.240;2023-04-03T04:39:24;15.57;;;8.02;;
22851;SDS011;11592;45.460;9.240;2023-04-03T04:41:51;17.23;;;7.25;;
22851;SDS011;11592;45.460;9.240;2023-04-03T04:44:18;13.07;;;7.90;;
22851;SDS011;11592;45.460;9.240;2023-04-03T04:46:46;15.48;;;8.45;;
22851;SDS011;11592;45.460;9.240;2023-04-03T04:49:12;12.82;;;7.32;;
22851;SDS011;11592;45.460;9.240;2023-04-03T04:51:39;16.20;;;8.18;;
22851;SDS011;11592;45.460;9.240;2023-04-03T04:54:17;18.90;;;8.93;;
22851;SDS011;11592;45.460;9.240;2023-04-03T04:56:44;14.68;;;7.80;;
22851;SDS011;11592;45.460;9.240;2023-04-03T04:59:10;22.00;;;8.57;;
22851;SDS011;11592;45.460;9.240;2023-04-03T05:01:37;15.95;;;8.65;;
22851;SDS011;11592;45.460;9.240;2023-04-03T05:04:05;16.10;;;9.02;;
22851;SDS011;11592;45.460;9.240;2023-04-03T05:06:31;16.58;;;9.15;;
22851;SDS011;11592;45.460;9.240;2023-04-03T05:08:59;16.42;;;9.35;;
22851;SDS011;11592;45.460;9.240;2023-04-03T05:11:25;19.35;;;9.40;;
22851;SDS011;11592;45.460;9.240;2023-04-03T05:13:52;16.98;;;8.93;;
22851;SDS011;11592;45.460;9.240;2023-04-03T05:16:19;19.55;;;9.98;;
22851;SDS011;11592;45.460;9.240;2023-04-03T05:18:46;21.70;;;9.73;;
22851;SDS011;11592;45.460;9.240;2023-04-03T05:21:13;16.45;;;9.43;;
22851;SDS011;11592;45.460;9.240;2023-04-03T05:23:40;20.65;;;10.05;;
22851;SDS011;11592;45.460;9.240;2023-04-03T05:26:07;18.35;;;9.27;;
22851;SDS011;11592;45.460;9.240;2023-04-03T05:28:33;18.90;;;9.35;;
22851;SDS011;11592;45.460;9.240;2023-04-03T05:31:00;16.85;;;9.23;;
22851;SDS011;11592;45.460;9.240;2023-04-03T05:33:27;20.90;;;9.45;;
22851;SDS011;11592;45.460;9.240;2023-04-03T05:35:54;18.10;;;8.20;;
22851;SDS011;11592;45.460;9.240;2023-04-03T05:38:21;15.10;;;8.98;;
22851;SDS011;11592;45.460;9.240;2023-04-03T05:40:48;15.10;;;8.50;;
22851;SDS011;11592;45.460;9.240;2023-04-03T05:43:15;16.83;;;8.48;;
22851;SDS011;11592;45.460;9.240;2023-04-03T05:45:42;17.15;;;8.57;;
22851;SDS011;11592;45.460;9.240;2023-04-03T05:48:12;17.45;;;9.00;;
22851;SDS011;11592;45.460;9.240;2023-04-03T05:50:39;18.40;;;8.90;;
22851;SDS011;11592;45.460;9.240;2023-04-03T05:53:10;19.08;;;9.02;;
22851;SDS011;11592;45.460;9.240;2023-04-03T05:55:47;15.63;;;8.73;;
22851;SDS011;11592;45.460;9.240;2023-04-03T05:58:14;18.15;;;8.73;;
22851;SDS011;11592;45.460;9.240;2023-04-03T06:00:40;21.55;;;8.55;;
22851;SDS011;11592;45.460;9.240;2023-04-03T06:03:07;18.48;;;9.57;;
22851;SDS011;11592;45.460;9.240;2023-04-03T06:05:34;18.75;;;9.80;;
22851;SDS011;11592;45.460;9.240;2023-04-03T06:08:02;22.25;;;10.52;;
22851;SDS011;11592;45.460;9.240;2023-04-03T06:10:29;18.65;;;9.38;;
22851;SDS011;11592;45.460;9.240;2023-04-03T06:12:56;18.25;;;10.10;;
22851;SDS011;11592;45.460;9.240;2023-04-03T06:15:23;23.45;;;9.70;;
22851;SDS011;11592;45.460;9.240;2023-04-03T06:17:50;16.90;;;9.68;;
22851;SDS011;11592;45.460;9.240;2023-04-03T06:20:17;20.63;;;9.82;;
22851;SDS011;11592;45.460;9.240;2023-04-03T06:22:44;15.00;;;9.13;;
22851;SDS011;11592;45.460;9.240;2023-04-03T06:25:12;14.65;;;8.27;;
22851;SDS011;11592;45.460;9.240;2023-04-03T06:27:38;17.10;;;8.45;;
22851;SDS011;11592;45.460;9.240;2023-04-03T06:30:06;15.80;;;8.32;;
22851;SDS011;11592;45.460;9.240;2023-04-03T06:32:33;12.43;;;7.63;;
22851;SDS011;11592;45.460;9.240;2023-04-03T06:35:00;13.95;;;7.63;;
22851;SDS011;11592;45.460;9.240;2023-04-03T06:37:27;13.88;;;7.28;;
22851;SDS011;11592;45.460;9.240;2023-04-03T06:39:55;10.38;;;6.60;;
22851;SDS011;11592;45.460;9.240;2023-04-03T06:42:22;11.30;;;6.18;;
22851;SDS011;11592;45.460;9.240;2023-04-03T06:44:49;12.23;;;6.25;;
22851;SDS011;11592;45.460;9.240;2023-04-03T06:47:17;12.45;;;6.18;;
22851;SDS011;11592;45.460;9.240;2023-04-03T06:49:44;11.38;;;5.78;;
22851;SDS011;11592;45.460;9.240;2023-04-03T06:52:11;13.70;;;6.28;;
22851;SDS011;11592;45.460;9.240;2023-04-03T06:54:39;8.70;;;5.55;;
22851;SDS011;11592;45.460;9.240;2023-04-03T06:57:07;8.77;;;5.40;;
22851;SDS011;11592;45.460;9.240;2023-04-03T06:59:34;11.88;;;6.05;;
22851;SDS011;11592;45.460;9.240;2023-04-03T07:02:02;9.38;;;5.60;;
22851;SDS011;11592;45.460;9.240;2023-04-03T07:04:29;8.48;;;5.70;;
22851;SDS011;11592;45.460;9.240;2023-04-03T07:06:56;10.10;;;5.80;;
22851;SDS011;11592;45.460;9.240;2023-04-03T07:09:23;9.38;;;5.28;;
22851;SDS011;11592;45.460;9.240;2023-04-03T07:11:50;16.35;;;6.15;;
22851;SDS011;11592;45.460;9.240;2023-04-03T07:14:17;10.75;;;5.85;;
22851;SDS011;11592;45.460;9.240;2023-04-03T07:16:44;12.93;;;6.10;;
22851;SDS011;11592;45.460;9.240;2023-04-03T07:19:11;10.88;;;6.28;;
22851;SDS011;11592;45.460;9.240;2023-04-03T07:21:38;11.32;;;5.95;;
22851;SDS011;11592;45.460;9.240;2023-04-03T07:24:05;8.32;;;5.65;;
22851;SDS011;11592;45.460;9.240;2023-04-03T07:26:35;10.50;;;5.80;;
22851;SDS011;11592;45.460;9.240;2023-04-03T07:29:02;10.68;;;5.28;;
22851;SDS011;11592;45.460;9.240;2023-04-03T07:31:29;8.65;;;5.50;;
22851;SDS011;11592;45.460;9.240;2023-04-03T07:33:56;9.65;;;6.22;;
22851;SDS011;11592;45.460;9.240;2023-04-03T07:36:23;9.20;;;6.40;;
22851;SDS011;11592;45.460;9.240;2023-04-03T07:38:50;12.38;;;6.10;;
22851;SDS011;11592;45.460;9.240;2023-04-03T07:41:17;10.38;;;6.05;;
22851;SDS011;11592;45.460;9.240;2023-04-03T07:43:46;11.02;;;6.47;;
22851;SDS011;11592;45.460;9.240;2023-04-03T07:46:13;8.93;;;5.70;;
22851;SDS011;11592;45.460;9.240;2023-04-03T07:48:40;8.82;;;5.80;;
22851;SDS011;11592;45.460;9.240;2023-04-03T07:51:07;12.32;;;6.50;;
22851;SDS011;11592;45.460;9.240;2023-04-03T07:53:33;9.73;;;5.50;;
22851;SDS011;11592;45.460;9.240;2023-04-03T07:56:01;10.05;;;6.05;;
22851;SDS011;11592;45.460;9.240;2023-04-03T07:58:29;9.23;;;5.80;;
22851;SDS011;11592;45.460;9.240;2023-04-03T08:00:56;13.70;;;6.53;;
22851;SDS011;11592;45.460;9.240;2023-04-03T08:03:23;11.40;;;5.50;;
22851;SDS011;11592;45.460;9.240;2023-04-03T08:05:51;10.13;;;5.72;;
22851;SDS011;11592;45.460;9.240;2023-04-03T08:08:20;11.70;;;5.63;;
22851;SDS011;11592;45.460;9.240;2023-04-03T08:10:49;8.63;;;5.38;;
22851;SDS011;11592;45.460;9.240;2023-04-03T08:13:17;7.22;;;5.28;;
22851;SDS011;11592;45.460;9.240;2023-04-03T08:15:45;8.85;;;5.00;;
22851;SDS011;11592;45.460;9.240;2023-04-03T08:18:13;7.78;;;5.10;;
22851;SDS011;11592;45.460;9.240;2023-04-03T08:20:40;9.00;;;5.10;;
22851;SDS011;11592;45.460;9.240;2023-04-03T08:23:08;10.57;;;4.85;;
22851;SDS011;11592;45.460;9.240;2023-04-03T08:25:38;8.30;;;5.00;;
22851;SDS011;11592;45.460;9.240;2023-04-03T08:28:06;8.48;;;4.75;;
22851;SDS011;11592;45.460;9.240;2023-04-03T08:30:34;7.15;;;5.00;;
22851;SDS011;11592;45.460;9.240;2023-04-03T08:33:02;7.65;;;4.85;;
22851;SDS011;11592;45.460;9.240;2023-04-03T08:35:29;7.20;;;4.80;;
22851;SDS011;11592;45.460;9.240;2023-04-03T08:37:56;7.55;;;4.78;;
22851;SDS011;11592;45.460;9.240;2023-04-03T08:40:23;6.45;;;4.70;;
22851;SDS011;11592;45.460;9.240;2023-04-03T08:42:54;8.52;;;5.30;;
22851;SDS011;11592;45.460;9.240;2023-04-03T08:50:53;7.28;;;5.07;;
22851;SDS011;11592;45.460;9.240;2023-04-03T08:53:28;7.65;;;5.25;;
22851;SDS011;11592;45.460;9.240;2023-04-03T08:55:58;7.82;;;4.78;;
22851;SDS011;11592;45.460;9.240;2023-04-03T09:01:20;7.10;;;4.30;;
22851;SDS011;11592;45.460;9.240;2023-04-03T09:04:01;7.85;;;4.90;;
22851;SDS011;11592;45.460;9.240;2023-04-03T09:06:34;10.23;;;5.00;;
22851;SDS011;11592;45.460;9.240;2023-04-03T09:20:25;8.05;;;4.30;;
22851;SDS011;11592;45.460;9.240;2023-04-03T09:26:17;8.35;;;4.28;;
22851;SDS011;11592;45.460;9.240;2023-04-03T09:28:58;7.90;;;4.50;;
22851;SDS011;11592;45.460;9.240;2023-04-03T09:31:42;4.75;;;4.10;;
22851;SDS011;11592;45.460;9.240;2023-04-03T09:34:13;6.03;;;3.90;;
22851;SDS011;11592;45.460;9.240;2023-04-03T09:36:49;6.45;;;4.40;;
22851;SDS011;11592;45.460;9.240;2023-04-03T09:39:27;9.93;;;4.10;;
22851;SDS011;11592;45.460;9.240;2023-04-03T09:44:26;8.75;;;4.53;;
22851;SDS011;11592;45.460;9.240;2023-04-03T09:46:58;6.15;;;4.45;;
22851;SDS011;11592;45.460;9.240;2023-04-03T09:49:26;5.93;;;4.40;;
22851;SDS011;11592;45.460;9.240;2023-04-03T09:51:53;6.72;;;4.43;;
22851;SDS011;11592;45.460;9.240;2023-04-03T09:57:08;7.93;;;4.10;;
22851;SDS011;11592;45.460;9.240;2023-04-03T09:59:59;6.00;;;4.20;;
22851;SDS011;11592;45.460;9.240;2023-04-03T10:02:39;5.20;;;3.80;;
22851;SDS011;11592;45.460;9.240;2023-04-03T10:05:54;4.88;;;3.88;;
22851;SDS011;11592;45.460;9.240;2023-04-03T10:10:40;5.55;;;3.50;;
22851;SDS011;11592;45.460;9.240;2023-04-03T10:13:12;7.55;;;3.22;;
22851;SDS011;11592;45.460;9.240;2023-04-03T10:15:53;6.75;;;3.47;;
22851;SDS011;11592;45.460;9.240;2023-04-03T10:27:42;8.88;;;3.90;;
22851;SDS011;11592;45.460;9.240;2023-04-03T10:33:39;5.43;;;4.30;;
22851;SDS011;11592;45.460;9.240;2023-04-03T10:36:35;5.63;;;4.57;;
22851;SDS011;11592;45.460;9.240;2023-04-03T10:45:19;6.28;;;3.17;;
22851;SDS011;11592;45.460;9.240;2023-04-03T10:47:59;6.57;;;3.08;;
22851;SDS011;11592;45.460;9.240;2023-04-03T10:50:38;4.20;;;2.80;;
22851;SDS011;11592;45.460;9.240;2023-04-03T10:53:55;8.25;;;3.17;;
22851;SDS011;11592;45.460;9.240;2023-04-03T10:56:26;3.72;;;2.65;;
22851;SDS011;11592;45.460;9.240;2023-04-03T10:59:45;3.78;;;2.50;;
22851;SDS011;11592;45.460;9.240;2023-04-03T11:04:49;6.22;;;2.40;;
22851;SDS011;11592;45.460;9.240;2023-04-03T11:07:24;8.40;;;2.50;;
22851;SDS011;11592;45.460;9.240;2023-04-03T11:09:55;5.93;;;2.95;;
22851;SDS011;11592;45.460;9.240;2023-04-03T11:15:11;4.90;;;2.83;;
22851;SDS011;11592;45.460;9.240;2023-04-03T11:17:51;4.60;;;2.78;;
22851;SDS011;11592;45.460;9.240;2023-04-03T11:20:28;4.10;;;2.30;;
22851;SDS011;11592;45.460;9.240;2023-04-03T11:23:08;4.43;;;3.10;;
22851;SDS011;11592;45.460;9.240;2023-04-03T11:25:40;5.38;;;2.92;;
22851;SDS011;11592;45.460;9.240;2023-04-03T11:28:14;8.32;;;2.70;;
22851;SDS011;11592;45.460;9.240;2023-04-03T11:30:54;3.67;;;2.47;;
22851;SDS011;11592;45.460;9.240;2023-04-03T11:36:52;7.07;;;2.88;;
22851;SDS011;11592;45.460;9.240;2023-04-03T11:39:30;4.70;;;4.00;;
22851;SDS011;11592;45.460;9.240;2023-04-03T11:44:45;4.00;;;2.50;;
22851;SDS011;11592;45.460;9.240;2023-04-03T11:47:12;3.45;;;3.00;;
22851;SDS011;11592;45.460;9.240;2023-04-03T11:50:37;2.30;;;1.77;;
22851;SDS011;11592;45.460;9.240;2023-04-03T11:58:18;3.53;;;2.10;;
22851;SDS011;11592;45.460;9.240;2023-04-03T12:00:47;3.72;;;2.10;;
22851;SDS011;11592;45.460;9.240;2023-04-03T12:05:52;2.75;;;2.05;;
22851;SDS011;11592;45.460;9.240;2023-04-03T12:08:27;7.28;;;2.45;;
22851;SDS011;11592;45.460;9.240;2023-04-03T12:13:43;3.10;;;1.80;;
22851;SDS011;11592;45.460;9.240;2023-04-03T12:16:42;2.50;;;1.87;;
22851;SDS011;11592;45.460;9.240;2023-04-03T12:32:30;6.10;;;1.85;;
22851;SDS011;11592;45.460;9.240;2023-04-03T12:44:03;2.20;;;1.70;;
22851;SDS011;11592;45.460;9.240;2023-04-03T12:46:28;1.77;;;1.33;;
22851;SDS011;11592;45.460;9.240;2023-04-03T12:52:05;5.35;;;1.98;;
22851;SDS011;11592;45.460;9.240;2023-04-03T12:54:45;4.80;;;2.00;;
22851;SDS011;11592;45.460;9.240;2023-04-03T12:59:47;2.05;;;1.50;;
22851;SDS011;11592;45.460;9.240;2023-04-03T13:04:51;3.65;;;1.80;;
22851;SDS011;11592;45.460;9.240;2023-04-03T13:07:24;2.22;;;1.30;;
22851;SDS011;11592;45.460;9.240;2023-04-03T13:10:00;4.72;;;1.50;;
22851;SDS011;11592;45.460;9.240;2023-04-03T13:12:49;3.90;;;1.50;;
22851;SDS011;11592;45.460;9.240;2023-04-03T13:15:18;5.70;;;1.48;;
22851;SDS011;11592;45.460;9.240;2023-04-03T13:17:49;2.22;;;1.77;;
22851;SDS011;11592;45.460;9.240;2023-04-03T13:23:07;2.10;;;1.45;;
22851;SDS011;11592;45.460;9.240;2023-04-03T13:25:40;3.88;;;1.45;;
22851;SDS011;11592;45.460;9.240;2023-04-03T13:28:10;4.80;;;1.83;;
22851;SDS011;11592;45.460;9.240;2023-04-03T13:30:40;3.25;;;1.40;;
22851;SDS011;11592;45.460;9.240;2023-04-03T13:33:23;1.98;;;1.30;;
22851;SDS011;11592;45.460;9.240;2023-04-03T13:36:00;3.33;;;1.20;;
22851;SDS011;11592;45.460;9.240;2023-04-03T13:38:36;2.15;;;1.50;;
22851;SDS011;11592;45.460;9.240;2023-04-03T13:41:05;1.35;;;0.98;;
22851;SDS011;11592;45.460;9.240;2023-04-03T13:44:14;2.42;;;1.55;;
22851;SDS011;11592;45.460;9.240;2023-04-03T13:46:41;4.88;;;1.25;;
22851;SDS011;11592;45.460;9.240;2023-04-03T13:51:55;4.03;;;1.58;;
22851;SDS011;11592;45.460;9.240;2023-04-03T13:54:35;3.00;;;1.30;;
22851;SDS011;11592;45.460;9.240;2023-04-03T13:57:11;1.83;;;1.27;;
22851;SDS011;11592;45.460;9.240;2023-04-03T13:59:40;1.77;;;1.27;;
22851;SDS011;11592;45.460;9.240;2023-04-03T14:02:13;3.58;;;1.20;;
22851;SDS011;11592;45.460;9.240;2023-04-03T14:04:48;2.33;;;1.80;;
22851;SDS011;11592;45.460;9.240;2023-04-03T14:07:26;1.85;;;1.25;;
22851;SDS011;11592;45.460;9.240;2023-04-03T14:09:55;2.03;;;1.40;;
22851;SDS011;11592;45.460;9.240;2023-04-03T14:12:33;2.85;;;1.70;;
22851;SDS011;11592;45.460;9.240;2023-04-03T14:15:18;2.10;;;1.27;;
22851;SDS011;11592;45.460;9.240;2023-04-03T14:17:50;3.35;;;1.88;;
22851;SDS011;11592;45.460;9.240;2023-04-03T14:20:23;1.48;;;1.27;;
22851;SDS011;11592;45.460;9.240;2023-04-03T14:22:53;2.55;;;1.55;;
22851;SDS011;11592;45.460;9.240;2023-04-03T14:25:21;3.85;;;1.33;;
22851;SDS011;11592;45.460;9.240;2023-04-03T14:27:50;2.45;;;1.67;;
22851;SDS011;11592;45.460;9.240;2023-04-03T14:30:23;3.47;;;1.42;;
22851;SDS011;11592;45.460;9.240;2023-04-03T14:32:53;4.68;;;1.58;;
22851;SDS011;11592;45.460;9.240;2023-04-03T14:35:20;3.08;;;1.48;;
22851;SDS011;11592;45.460;9.240;2023-04-03T14:37:48;2.92;;;1.50;;
22851;SDS011;11592;45.460;9.240;2023-04-03T14:40:18;3.08;;;1.95;;
22851;SDS011;11592;45.460;9.240;2023-04-03T14:42:48;4.15;;;1.50;;
22851;SDS011;11592;45.460;9.240;2023-04-03T14:45:16;2.40;;;1.50;;
22851;SDS011;11592;45.460;9.240;2023-04-03T14:47:49;2.38;;;1.60;;
22851;SDS011;11592;45.460;9.240;2023-04-03T14:50:20;6.63;;;1.65;;
22851;SDS011;11592;45.460;9.240;2023-04-03T14:52:49;3.65;;;1.13;;
22851;SDS011;11592;45.460;9.240;2023-04-03T14:55:18;4.18;;;1.77;;
22851;SDS011;11592;45.460;9.240;2023-04-03T14:57:47;5.07;;;1.52;;
22851;SDS011;11592;45.460;9.240;2023-04-03T15:00:15;5.30;;;2.05;;
22851;SDS011;11592;45.460;9.240;2023-04-03T15:02:43;4.85;;;1.90;;
22851;SDS011;11592;45.460;9.240;2023-04-03T15:05:12;4.00;;;2.20;;
22851;SDS011;11592;45.460;9.240;2023-04-03T15:07:42;8.27;;;1.90;;
22851;SDS011;11592;45.460;9.240;2023-04-03T15:10:16;5.82;;;1.80;;
22851;SDS011;11592;45.460;9.240;2023-04-03T15:12:44;4.25;;;1.75;;
22851;SDS011;11592;45.460;9.240;2023-04-03T15:15:11;5.53;;;2.10;;
22851;SDS011;11592;45.460;9.240;2023-04-03T15:17:39;6.28;;;2.33;;
22851;SDS011;11592;45.460;9.240;2023-04-03T15:20:15;5.60;;;1.90;;
22851;SDS011;11592;45.460;9.240;2023-04-03T15:22:43;3.30;;;1.85;;
22851;SDS011;11592;45.460;9.240;2023-04-03T15:25:10;4.68;;;2.63;;
22851;SDS011;11592;45.460;9.240;2023-04-03T15:27:37;3.45;;;2.00;;
22851;SDS011;11592;45.460;9.240;2023-04-03T15:30:06;5.05;;;2.20;;
22851;SDS011;11592;45.460;9.240;2023-04-03T15:32:37;5.80;;;2.45;;
22851;SDS011;11592;45.460;9.240;2023-04-03T15:35:04;3.58;;;1.98;;
22851;SDS011;11592;45.460;9.240;2023-04-03T15:37:31;3.95;;;2.13;;
22851;SDS011;11592;45.460;9.240;2023-04-03T15:39:58;5.35;;;2.55;;
22851;SDS011;11592;45.460;9.240;2023-04-03T15:42:25;4.88;;;2.00;;
22851;SDS011;11592;45.460;9.240;2023-04-03T15:44:52;5.65;;;2.10;;
22851;SDS011;11592;45.460;9.240;2023-04-03T15:47:19;7.90;;;2.38;;
22851;SDS011;11592;45.460;9.240;2023-04-03T15:49:46;8.95;;;2.25;;
22851;SDS011;11592;45.460;9.240;2023-04-03T15:52:12;6.32;;;2.15;;
22851;SDS011;11592;45.460;9.240;2023-04-03T15:54:39;4.45;;;2.10;;
22851;SDS011;11592;45.460;9.240;2023-04-03T15:57:06;8.48;;;2.80;;
22851;SDS011;11592;45.460;9.240;2023-04-03T15:59:33;5.60;;;1.92;;
22851;SDS011;11592;45.460;9.240;2023-04-03T16:02:00;6.22;;;2.53;;
22851;SDS011;11592;45.460;9.240;2023-04-03T16:04:29;5.63;;;2.20;;
22851;SDS011;11592;45.460;9.240;2023-04-03T16:06:56;6.53;;;2.17;;
22851;SDS011;11592;45.460;9.240;2023-04-03T16:09:23;7.45;;;2.35;;
22851;SDS011;11592;45.460;9.240;2023-04-03T16:11:50;4.32;;;2.45;;
22851;SDS011;11592;45.460;9.240;2023-04-03T16:14:16;5.30;;;2.30;;
22851;SDS011;11592;45.460;9.240;2023-04-03T16:16:43;9.23;;;2.17;;
22851;SDS011;11592;45.460;9.240;2023-04-03T16:19:10;7.45;;;2.22;;
22851;SDS011;11592;45.460;9.240;2023-04-03T16:21:37;5.07;;;2.13;;
22851;SDS011;11592;45.460;9.240;2023-04-03T16:24:04;5.15;;;2.05;;
22851;SDS011;11592;45.460;9.240;2023-04-03T16:26:31;4.10;;;2.03;;
22851;SDS011;11592;45.460;9.240;2023-04-03T16:28:58;5.03;;;2.35;;
22851;SDS011;11592;45.460;9.240;2023-04-03T16:31:25;7.30;;;2.35;;
22851;SDS011;11592;45.460;9.240;2023-04-03T16:33:52;9.05;;;2.47;;
22851;SDS011;11592;45.460;9.240;2023-04-03T16:36:20;5.32;;;2.22;;
22851;SDS011;11592;45.460;9.240;2023-04-03T16:38:47;5.25;;;1.90;;
22851;SDS011;11592;45.460;9.240;2023-04-03T16:41:14;4.53;;;2.20;;
22851;SDS011;11592;45.460;9.240;2023-04-03T16:43:40;7.28;;;2.20;;
22851;SDS011;11592;45.460;9.240;2023-04-03T16:46:08;6.55;;;2.20;;
22851;SDS011;11592;45.460;9.240;2023-04-03T16:48:35;5.85;;;2.33;;
22851;SDS011;11592;45.460;9.240;2023-04-03T16:51:02;5.80;;;2.40;;
22851;SDS011;11592;45.460;9.240;2023-04-03T16:53:29;6.18;;;2.08;;